Time;durP1;ratioP1;P1;durP2;ratioP2;P2;SDS_P1;SDS_P2;PMS_P1;PMS_P2;Temp;Humidity;BMP_temperature;BMP_pressure;BME280_temperature;BME280_humidity;BME280_pressure;Samples;Min_cycle;Max_cycle;Signal;HPM_P1;HPM_P2
2021/10/26 00:01:18;;;;;;;19.37;15.87;;;9.50;99.90;;;;;;4962050;28;20437;-89
2021/10/26 00:03:46;;;;;;;15.27;13.60;;;9.60;99.90;;;;;;4960178;28;20473;-88
2021/10/26 00:06:13;;;;;;;18.17;15.20;;;9.40;99.90;;;;;;4960625;28;20437;-89
2021/10/26 00:08:40;;;;;;;15.83;14.13;;;9.40;99.90;;;;;;4960283;28;20449;-89
2021/10/26 00:11:07;;;;;;;14.60;13.10;;;9.30;99.90;;;;;;4962413;28;20805;-89
2021/10/26 00:13:34;;;;;;;16.93;13.10;;;9.30;99.90;;;;;;4979858;28;20477;-90
2021/10/26 00:16:01;;;;;;;16.80;14.73;;;9.20;99.90;;;;;;4971010;28;20964;-89
2021/10/26 00:18:28;;;;;;;15.93;13.70;;;9.10;99.90;;;;;;4960867;28;20484;-89
2021/10/26 00:20:56;;;;;;;17.07;13.67;;;9.10;99.90;;;;;;4960021;28;20443;-89
2021/10/26 00:23:23;;;;;;;19.50;14.80;;;9.20;99.90;;;;;;4959351;28;20543;-89
2021/10/26 00:25:49;;;;;;;17.30;13.20;;;9.20;99.90;;;;;;4961466;28;20453;-89
2021/10/26 00:28:16;;;;;;;17.37;13.67;;;9.30;99.90;;;;;;4973796;28;20447;-90
2021/10/26 00:30:43;;;;;;;17.77;13.97;;;9.40;99.90;;;;;;4961309;28;20572;-89
2021/10/26 00:33:10;;;;;;;19.40;13.93;;;9.50;99.90;;;;;;4966482;28;20448;-89
2021/10/26 00:35:37;;;;;;;19.77;14.47;;;9.60;99.90;;;;;;4977885;28;20471;-89
2021/10/26 00:38:05;;;;;;;16.13;13.10;;;9.60;99.90;;;;;;4967014;28;20476;-89
2021/10/26 00:40:32;;;;;;;17.10;12.93;;;9.70;99.90;;;;;;4962232;28;20445;-89
2021/10/26 00:42:59;;;;;;;16.73;13.63;;;9.80;99.90;;;;;;4960808;28;20460;-89
2021/10/26 00:45:26;;;;;;;21.17;13.47;;;9.80;99.90;;;;;;4963303;28;20457;-89
2021/10/26 00:47:52;;;;;;;17.70;13.80;;;10.00;99.90;;;;;;4981395;28;20453;-90
2021/10/26 00:50:19;;;;;;;15.37;12.73;;;10.00;99.90;;;;;;4971837;28;20451;-89
2021/10/26 00:52:47;;;;;;;17.40;14.27;;;10.10;99.90;;;;;;4961191;28;20554;-90
2021/10/26 00:55:16;;;;;;;19.83;14.63;;;10.10;99.90;;;;;;4960418;28;20476;-89
2021/10/26 00:57:43;;;;;;;17.03;13.50;;;10.00;99.90;;;;;;4960320;28;20488;-89
2021/10/26 01:00:11;;;;;;;14.97;12.53;;;10.00;99.90;;;;;;4962256;28;20453;-89
2021/10/26 01:02:38;;;;;;;18.70;13.63;;;10.00;99.90;;;;;;4964930;28;20452;-90
2021/10/26 01:05:06;;;;;;;17.00;13.17;;;10.10;99.90;;;;;;4971291;28;20480;-89
2021/10/26 01:07:33;;;;;;;18.27;13.50;;;10.10;99.90;;;;;;4961521;28;20441;-89
2021/10/26 01:10:01;;;;;;;16.60;12.77;;;10.00;99.90;;;;;;4957290;28;20834;-89
2021/10/26 01:12:30;;;;;;;25.23;12.77;;;9.90;99.90;;;;;;4959371;28;20433;-89
2021/10/26 01:14:57;;;;;;;14.13;12.17;;;9.90;99.90;;;;;;4975694;28;20477;-91
2021/10/26 01:17:24;;;;;;;17.63;12.80;;;9.90;99.90;;;;;;4974007;28;20441;-90
2021/10/26 01:19:54;;;;;;;15.67;12.67;;;10.00;99.90;;;;;;4960819;28;20519;-89
2021/10/26 01:22:24;;;;;;;14.13;12.67;;;10.00;99.90;;;;;;4966992;28;20461;-90
2021/10/26 01:24:51;;;;;;;16.83;12.77;;;9.90;99.90;;;;;;4961889;28;20846;-89
2021/10/26 01:27:19;;;;;;;16.63;13.30;;;9.90;99.90;;;;;;4960410;28;20457;-89
2021/10/26 01:29:46;;;;;;;18.10;12.97;;;10.00;99.90;;;;;;4965208;28;20449;-89
2021/10/26 01:32:15;;;;;;;16.13;13.40;;;10.10;99.90;;;;;;4964103;28;20440;-90
2021/10/26 01:34:42;;;;;;;17.90;13.50;;;10.10;99.90;;;;;;4960195;28;20500;-89
2021/10/26 01:37:12;;;;;;;16.30;14.30;;;10.20;99.90;;;;;;4962245;28;20471;-89
2021/10/26 01:39:40;;;;;;;18.20;15.20;;;10.30;99.90;;;;;;4962982;28;20485;-89
2021/10/26 01:42:09;;;;;;;17.87;15.10;;;10.30;99.90;;;;;;4972224;28;20452;-89
2021/10/26 01:44:36;;;;;;;17.40;13.80;;;10.30;99.90;;;;;;4979000;28;20465;-90
2021/10/26 01:47:04;;;;;;;21.00;13.53;;;10.30;99.90;;;;;;4961090;28;20469;-89
2021/10/26 01:49:31;;;;;;;20.43;14.70;;;10.40;99.90;;;;;;4961321;28;20449;-89
2021/10/26 01:51:58;;;;;;;20.97;15.20;;;10.40;99.90;;;;;;4959429;28;20459;-89
2021/10/26 01:54:26;;;;;;;17.70;14.63;;;10.40;99.90;;;;;;4965780;28;20469;-89
2021/10/26 01:56:53;;;;;;;20.30;14.73;;;10.40;99.90;;;;;;4981608;28;20441;-90
2021/10/26 01:59:20;;;;;;;18.80;15.20;;;10.40;99.90;;;;;;4975640;28;20845;-89
2021/10/26 02:01:47;;;;;;;17.43;14.70;;;10.40;99.90;;;;;;4980750;28;20457;-91
2021/10/26 02:04:14;;;;;;;16.17;14.47;;;10.30;99.90;;;;;;4974611;28;20493;-89
2021/10/26 02:06:40;;;;;;;18.00;14.30;;;10.30;99.90;;;;;;4962679;28;20477;-90
2021/10/26 02:09:07;;;;;;;17.93;14.50;;;10.30;99.90;;;;;;4961238;28;20453;-90
2021/10/26 02:11:36;;;;;;;22.13;14.70;;;10.30;99.90;;;;;;4974009;28;20449;-90
2021/10/26 02:14:03;;;;;;;18.30;14.10;;;10.20;99.90;;;;;;4973347;28;20555;-89
2021/10/26 02:16:30;;;;;;;19.40;16.00;;;10.00;99.90;;;;;;4971955;28;20488;-91
2021/10/26 02:18:57;;;;;;;20.07;14.97;;;9.90;99.90;;;;;;4973339;28;20491;-90
2021/10/26 02:21:24;;;;;;;20.73;18.20;;;9.90;99.90;;;;;;4963547;28;20472;-89
2021/10/26 02:23:51;;;;;;;18.47;16.50;;;9.90;99.90;;;;;;4978171;28;20571;-89
2021/10/26 02:26:18;;;;;;;17.17;15.40;;;9.90;99.90;;;;;;4971069;28;20448;-89
2021/10/26 02:28:46;;;;;;;19.83;17.20;;;9.90;99.90;;;;;;4960843;28;20887;-89
2021/10/26 02:31:13;;;;;;;20.17;16.30;;;9.80;99.90;;;;;;4966130;28;20453;-89
2021/10/26 02:33:40;;;;;;;17.00;15.20;;;9.80;99.90;;;;;;4969018;28;20480;-88
2021/10/26 02:36:07;;;;;;;21.23;16.90;;;9.70;99.90;;;;;;4960065;28;20440;-88
2021/10/26 02:38:34;;;;;;;21.53;17.17;;;9.60;99.90;;;;;;4959234;28;20528;-89
2021/10/26 02:41:03;;;;;;;20.17;17.53;;;9.60;99.90;;;;;;4958458;28;20461;-89
2021/10/26 02:43:30;;;;;;;21.17;17.90;;;9.60;99.90;;;;;;4958586;28;20437;-88
2021/10/26 02:46:00;;;;;;;19.97;15.87;;;9.50;99.90;;;;;;4958628;28;20511;-89
2021/10/26 02:48:27;;;;;;;20.40;16.07;;;9.60;99.90;;;;;;4959682;28;20491;-88
2021/10/26 02:50:54;;;;;;;19.37;17.40;;;9.50;99.90;;;;;;4964290;28;20433;-90
2021/10/26 02:53:21;;;;;;;21.93;16.87;;;9.50;99.90;;;;;;4965520;28;21444;-89
2021/10/26 02:55:48;;;;;;;20.47;17.50;;;9.50;99.90;;;;;;4958091;28;20541;-89
2021/10/26 02:58:15;;;;;;;21.90;18.13;;;9.50;99.90;;;;;;4973094;28;20483;-89
2021/10/26 03:00:43;;;;;;;19.03;16.20;;;9.50;99.90;;;;;;4969236;28;20449;-89
2021/10/26 03:03:11;;;;;;;21.30;18.60;;;9.50;99.90;;;;;;4959974;28;20481;-88
2021/10/26 03:05:38;;;;;;;21.60;17.20;;;9.50;99.90;;;;;;4957152;28;20622;-89
2021/10/26 03:08:05;;;;;;;22.57;18.20;;;9.50;99.90;;;;;;4957281;28;20456;-89
2021/10/26 03:10:32;;;;;;;21.23;17.17;;;9.50;99.90;;;;;;4956886;28;20437;-89
2021/10/26 03:12:59;;;;;;;19.60;17.40;;;9.50;99.90;;;;;;4957903;28;20461;-89
2021/10/26 03:15:25;;;;;;;20.10;17.63;;;9.50;99.90;;;;;;4957039;28;20480;-89
2021/10/26 03:17:52;;;;;;;23.03;17.70;;;9.50;99.90;;;;;;4957369;28;20460;-89
2021/10/26 03:20:21;;;;;;;19.70;16.90;;;9.40;99.90;;;;;;4960714;28;20485;-89
2021/10/26 03:22:47;;;;;;;20.00;17.20;;;9.40;99.90;;;;;;4964288;28;20498;-89
2021/10/26 03:25:15;;;;;;;23.97;18.57;;;9.40;99.90;;;;;;4956951;28;20479;-88
2021/10/26 03:27:42;;;;;;;19.43;17.20;;;9.30;99.90;;;;;;4969348;28;20498;-91
2021/10/26 03:30:10;;;;;;;19.87;17.70;;;9.30;99.90;;;;;;4973555;28;20456;-89
2021/10/26 03:32:38;;;;;;;20.10;15.83;;;9.30;99.90;;;;;;4962051;28;20453;-89
2021/10/26 03:35:05;;;;;;;22.27;16.67;;;9.30;99.90;;;;;;4958897;28;20476;-89
2021/10/26 03:37:35;;;;;;;21.83;18.20;;;9.30;99.90;;;;;;4957423;28;20460;-89
2021/10/26 03:40:02;;;;;;;21.60;17.33;;;9.30;99.90;;;;;;4958209;28;20480;-89
2021/10/26 03:42:29;;;;;;;19.80;16.23;;;9.40;99.90;;;;;;4957120;28;20449;-89
2021/10/26 03:44:56;;;;;;;20.73;16.67;;;9.40;99.90;;;;;;4961644;28;20468;-89
2021/10/26 03:47:22;;;;;;;22.90;17.50;;;9.40;99.90;;;;;;4971192;28;20445;-89
2021/10/26 03:49:49;;;;;;;20.23;16.00;;;9.50;99.90;;;;;;4957089;28;20453;-89
2021/10/26 03:52:16;;;;;;;21.73;16.47;;;9.50;99.90;;;;;;4956270;28;20437;-89
2021/10/26 03:54:44;;;;;;;18.27;15.80;;;9.50;99.90;;;;;;4957649;28;20472;-90
2021/10/26 03:57:12;;;;;;;18.27;16.30;;;9.50;99.90;;;;;;4959669;28;20445;-90
2021/10/26 03:59:47;;;;;;;19.43;16.27;;;9.40;99.90;;;;;;4964223;28;20556;-90
2021/10/26 04:02:19;;;;;;;17.57;15.73;;;9.40;99.90;;;;;;4978707;28;20413;-92
2021/10/26 04:04:46;;;;;;;18.63;15.50;;;9.40;99.90;;;;;;4972341;28;20512;-90
2021/10/26 04:07:13;;;;;;;18.47;16.50;;;9.40;99.90;;;;;;4975660;28;20469;-90
2021/10/26 04:09:48;;;;;;;17.57;15.77;;;9.40;99.90;;;;;;4960132;28;20449;-90
2021/10/26 04:15:00;;;;;;;19.80;16.83;;;9.40;99.90;;;;;;4970410;28;20503;-91
2021/10/26 04:17:28;;;;;;;17.77;14.83;;;9.40;99.90;;;;;;4979175;28;20445;-90
2021/10/26 04:19:57;;;;;;;17.30;14.10;;;9.40;99.90;;;;;;4969247;28;20476;-90
2021/10/26 04:22:24;;;;;;;17.60;15.37;;;9.40;99.90;;;;;;4977162;28;20468;-91
2021/10/26 04:24:52;;;;;;;16.07;14.37;;;9.40;99.90;;;;;;4952304;28;20470;-90
2021/10/26 04:27:21;;;;;;;19.20;15.70;;;9.40;99.90;;;;;;4947633;29;20525;-90
2021/10/26 04:29:48;;;;;;;19.20;15.80;;;9.40;99.90;;;;;;4950137;29;20448;-91
2021/10/26 04:32:19;;;;;;;22.03;16.43;;;9.50;99.90;;;;;;4984563;23;20492;-93
2021/10/26 04:34:51;;;;;;;18.00;15.40;;;9.50;99.90;;;;;;4977880;28;20459;-94
2021/10/26 04:37:23;;;;;;;22.93;16.40;;;9.60;99.90;;;;;;4978709;28;20511;-93
2021/10/26 04:40:09;;;;;;;18.50;14.90;;;9.60;99.90;;;;;;4977913;28;20503;-94
2021/10/26 04:45:58;;;;;;;22.10;17.00;;;9.50;99.90;;;;;;4961431;28;20444;-92
2021/10/26 04:51:28;;;;;;;20.00;16.40;;;9.60;99.90;;;;;;4963062;28;20904;-93
2021/10/26 04:54:07;;;;;;;19.57;14.97;;;9.60;99.90;;;;;;4966534;28;20456;-94
2021/10/26 04:56:38;;;;;;;21.57;16.63;;;9.60;99.90;;;;;;4964189;28;20872;-93
2021/10/26 04:59:14;;;;;;;21.53;16.17;;;9.60;99.90;;;;;;4964551;28;20531;-94
2021/10/26 05:07:14;;;;;;;20.97;17.20;;;9.60;99.90;;;;;;4961628;29;20445;-93
2021/10/26 05:16:04;;;;;;;19.50;15.67;;;9.60;99.90;;;;;;4964348;29;20528;-94
2021/10/26 05:18:46;;;;;;;27.87;19.70;;;9.60;99.90;;;;;;4964355;29;20464;-94
2021/10/26 05:24:10;;;;;;;23.73;17.50;;;9.50;99.90;;;;;;4969977;28;20469;-92
2021/10/26 05:27:01;;;;;;;21.53;16.63;;;9.50;99.90;;;;;;4969921;28;20487;-93
2021/10/26 05:29:30;;;;;;;20.30;18.20;;;9.50;99.90;;;;;;4962468;29;20441;-92
2021/10/26 05:32:01;;;;;;;22.97;17.27;;;9.50;99.90;;;;;;4960992;28;20465;-93
2021/10/26 05:34:31;;;;;;;22.50;16.83;;;9.50;99.90;;;;;;4961542;29;20444;-92
2021/10/26 05:36:58;;;;;;;21.97;18.50;;;9.60;99.90;;;;;;4961306;28;20444;-92
2021/10/26 05:39:28;;;;;;;19.00;17.10;;;9.60;99.90;;;;;;4966075;28;20453;-90
2021/10/26 05:41:58;;;;;;;24.10;18.40;;;9.60;99.90;;;;;;4979759;28;20519;-91
2021/10/26 05:44:26;;;;;;;22.60;18.80;;;9.60;99.90;;;;;;4972719;28;20440;-91
2021/10/26 05:46:58;;;;;;;22.80;18.37;;;9.60;99.90;;;;;;4964285;28;20445;-93
2021/10/26 05:49:37;;;;;;;23.13;17.00;;;9.50;99.90;;;;;;4969400;29;20456;-94
2021/10/26 05:55:47;;;;;;;24.53;19.93;;;9.50;99.90;;;;;;4951479;29;20421;-93
2021/10/26 05:58:27;;;;;;;30.83;19.83;;;9.50;99.90;;;;;;4947879;29;20457;-92
2021/10/26 06:00:57;;;;;;;20.13;17.60;;;9.40;99.90;;;;;;4981704;28;20498;-94
2021/10/26 06:03:45;;;;;;;22.80;19.77;;;9.50;99.90;;;;;;4996912;28;20443;-93
2021/10/26 06:06:14;;;;;;;25.20;18.57;;;9.50;99.90;;;;;;5014300;28;20444;-92
2021/10/26 06:08:44;;;;;;;22.43;18.80;;;9.50;99.90;;;;;;5017230;28;20452;-94
2021/10/26 06:11:17;;;;;;;22.97;19.63;;;9.40;99.90;;;;;;4994263;28;20467;-92
2021/10/26 06:13:46;;;;;;;26.83;19.20;;;9.40;99.90;;;;;;4991659;28;20447;-94
2021/10/26 06:16:13;;;;;;;23.77;19.37;;;9.40;99.90;;;;;;5000812;28;20502;-93
2021/10/26 06:18:42;;;;;;;24.53;19.20;;;9.40;99.90;;;;;;5001476;28;20445;-94
2021/10/26 06:21:16;;;;;;;24.63;19.17;;;9.40;99.90;;;;;;4996597;28;20479;-93
2021/10/26 06:23:43;;;;;;;20.77;18.10;;;9.40;99.90;;;;;;4999420;28;20460;-92
2021/10/26 06:26:13;;;;;;;21.70;19.23;;;9.40;99.90;;;;;;5003401;28;20483;-92
2021/10/26 06:28:44;;;;;;;25.90;20.20;;;9.40;99.90;;;;;;4997142;28;20475;-93
2021/10/26 06:31:16;;;;;;;30.40;21.83;;;9.40;99.90;;;;;;5000408;28;20447;-93
2021/10/26 06:33:44;;;;;;;23.70;20.27;;;9.50;99.90;;;;;;4997577;28;20432;-93
2021/10/26 06:36:13;;;;;;;27.20;20.70;;;9.50;99.90;;;;;;4998057;28;20482;-94
2021/10/26 06:38:43;;;;;;;25.00;18.07;;;9.60;99.90;;;;;;4999107;28;20471;-93
2021/10/26 06:41:10;;;;;;;27.87;19.23;;;9.70;99.90;;;;;;4996020;28;20486;-94
2021/10/26 06:43:37;;;;;;;27.73;20.00;;;9.80;99.90;;;;;;4999267;28;20461;-92
2021/10/26 06:46:04;;;;;;;24.17;21.00;;;9.90;99.90;;;;;;4997348;28;20449;-94
2021/10/26 06:48:31;;;;;;;22.37;19.70;;;10.00;99.90;;;;;;4998354;28;20458;-93
2021/10/26 06:51:01;;;;;;;26.97;20.40;;;10.10;99.90;;;;;;5010740;28;20478;-92
2021/10/26 06:53:29;;;;;;;22.40;18.60;;;10.20;99.90;;;;;;5013952;28;20470;-92
2021/10/26 06:56:02;;;;;;;21.40;17.63;;;10.20;99.90;;;;;;5012853;28;20479;-92
2021/10/26 06:58:32;;;;;;;29.27;18.70;;;10.20;99.90;;;;;;5000402;28;20494;-92
2021/10/26 07:00:59;;;;;;;24.60;17.90;;;10.30;99.90;;;;;;4999942;28;20550;-92
2021/10/26 07:03:26;;;;;;;26.10;19.13;;;10.20;99.90;;;;;;5000650;28;20449;-93
2021/10/26 07:05:52;;;;;;;26.60;18.77;;;10.30;99.90;;;;;;5010160;28;20470;-93
2021/10/26 07:08:19;;;;;;;27.00;22.40;;;10.30;99.90;;;;;;5011208;28;20467;-92
2021/10/26 07:10:48;;;;;;;23.10;19.47;;;10.30;99.90;;;;;;5000689;28;20473;-94
2021/10/26 07:13:15;;;;;;;28.40;19.80;;;10.40;99.90;;;;;;5012921;28;20450;-92
2021/10/26 07:15:42;;;;;;;26.40;19.00;;;10.40;99.90;;;;;;5011360;28;20471;-94
2021/10/26 07:18:10;;;;;;;21.83;17.70;;;10.40;99.90;;;;;;4996533;28;20466;-93
2021/10/26 07:20:37;;;;;;;22.50;18.83;;;10.50;99.90;;;;;;4996936;28;20839;-93
2021/10/26 07:23:07;;;;;;;19.33;17.23;;;10.60;99.90;;;;;;5003776;28;20454;-92
2021/10/26 07:25:34;;;;;;;23.10;19.13;;;10.80;99.90;;;;;;5002373;28;20447;-94
2021/10/26 07:28:04;;;;;;;24.50;19.10;;;10.90;99.90;;;;;;4999669;28;20435;-94
2021/10/26 07:30:36;;;;;;;22.80;18.37;;;11.00;99.90;;;;;;4998821;28;20454;-94
2021/10/26 07:33:08;;;;;;;22.60;18.07;;;11.00;99.90;;;;;;5005662;28;20501;-93
2021/10/26 07:35:40;;;;;;;27.13;17.97;;;11.10;99.90;;;;;;5002643;28;20496;-94
2021/10/26 07:38:08;;;;;;;22.53;18.80;;;11.20;99.90;;;;;;5014964;28;20433;-91
2021/10/26 07:40:35;;;;;;;18.83;16.90;;;11.30;99.90;;;;;;5017090;28;20471;-94
2021/10/26 07:43:04;;;;;;;24.73;18.97;;;11.40;99.90;;;;;;5017108;28;20510;-91
2021/10/26 07:45:31;;;;;;;20.57;18.33;;;11.60;99.90;;;;;;5008469;28;20436;-93
2021/10/26 07:48:10;;;;;;;20.23;17.97;;;11.70;99.90;;;;;;5004626;28;20447;-94
2021/10/26 07:50:42;;;;;;;19.27;16.67;;;11.80;99.90;;;;;;5008482;28;20473;-93
2021/10/26 07:53:11;;;;;;;19.47;16.93;;;11.90;99.90;;;;;;5003435;28;20526;-93
2021/10/26 07:55:54;;;;;;;18.97;17.10;;;12.10;99.90;;;;;;5005766;28;20483;-93
2021/10/26 07:58:24;;;;;;;19.30;17.20;;;12.00;99.90;;;;;;5008174;28;20446;-90
2021/10/26 08:00:58;;;;;;;19.17;16.37;;;12.10;99.90;;;;;;5017502;28;20470;-93
2021/10/26 08:03:28;;;;;;;24.50;18.20;;;12.10;99.90;;;;;;5008787;28;20445;-91
2021/10/26 08:05:55;;;;;;;23.37;20.30;;;12.10;99.90;;;;;;5005993;28;20441;-93
2021/10/26 08:08:23;;;;;;;22.20;19.80;;;12.20;99.90;;;;;;5005021;28;20458;-93
2021/10/26 08:10:50;;;;;;;20.43;17.43;;;12.30;99.90;;;;;;5000028;28;20467;-93
2021/10/26 08:13:27;;;;;;;29.33;19.97;;;12.30;99.90;;;;;;5004965;28;20518;-92
2021/10/26 08:15:57;;;;;;;21.13;18.17;;;12.40;99.90;;;;;;4999664;28;20489;-93
2021/10/26 08:18:24;;;;;;;21.53;18.30;;;12.50;99.90;;;;;;5007563;28;20455;-91
2021/10/26 08:20:57;;;;;;;19.13;17.17;;;12.70;99.90;;;;;;5014373;28;20533;-90
2021/10/26 08:23:28;;;;;;;21.87;17.57;;;12.80;99.90;;;;;;5006401;28;20442;-93
2021/10/26 08:25:58;;;;;;;21.07;18.30;;;12.90;99.90;;;;;;5002588;28;20487;-93
2021/10/26 08:28:27;;;;;;;17.00;15.33;;;13.10;99.90;;;;;;5004503;28;20457;-94
2021/10/26 08:30:58;;;;;;;22.60;18.00;;;13.10;99.90;;;;;;5002543;28;20851;-92
2021/10/26 08:33:37;;;;;;;19.30;17.40;;;13.20;99.90;;;;;;5012190;28;20425;-92
2021/10/26 08:36:07;;;;;;;20.30;17.77;;;13.40;99.90;;;;;;5021307;28;20431;-92
2021/10/26 08:38:39;;;;;;;20.53;17.87;;;13.50;99.90;;;;;;5018597;28;20441;-92
2021/10/26 08:41:07;;;;;;;18.83;17.03;;;13.70;99.90;;;;;;5008578;28;20547;-93
2021/10/26 08:43:37;;;;;;;18.03;16.13;;;13.90;99.90;;;;;;5002268;28;20457;-91
2021/10/26 08:46:08;;;;;;;18.67;16.43;;;14.10;99.90;;;;;;5007885;28;20500;-92
2021/10/26 08:48:40;;;;;;;17.90;16.00;;;14.40;99.90;;;;;;5001224;28;20470;-93
2021/10/26 08:51:11;;;;;;;18.20;16.43;;;14.80;99.90;;;;;;5007493;28;20968;-93
2021/10/26 08:53:39;;;;;;;17.47;15.43;;;14.80;99.90;;;;;;5000773;28;20463;-93
2021/10/26 09:00:07;;;;;;;19.50;17.27;;;14.60;99.90;;;;;;5003762;28;20961;-93
2021/10/26 09:02:39;;;;;;;20.60;17.47;;;14.70;99.90;;;;;;5016201;28;20451;-92
2021/10/26 09:05:24;;;;;;;21.27;17.23;;;14.80;99.90;;;;;;5018025;28;20484;-93
2021/10/26 09:08:06;;;;;;;21.13;16.40;;;14.90;99.90;;;;;;5008288;28;20565;-94
2021/10/26 09:10:44;;;;;;;19.17;16.37;;;14.90;99.90;;;;;;5005161;28;20501;-94
2021/10/26 09:16:46;;;;;;;17.23;15.20;;;15.20;99.90;;;;;;5010922;28;20442;-91
2021/10/26 09:19:24;;;;;;;20.00;16.17;;;15.30;99.90;;;;;;5006196;28;20851;-93
2021/10/26 09:25:14;;;;;;;17.17;15.20;;;15.90;99.90;;;;;;5008920;28;20431;-92
2021/10/26 09:34:26;;;;;;;16.93;15.23;;;16.70;99.90;;;;;;5003321;28;20845;-93
2021/10/26 09:37:33;;;;;;;18.10;15.40;;;16.90;99.90;;;;;;5001443;28;20433;-92
2021/10/26 09:47:23;;;;;;;15.07;13.47;;;16.60;99.90;;;;;;4968595;28;20458;-89
2021/10/26 09:49:54;;;;;;;18.70;14.97;;;16.20;99.90;;;;;;4997358;28;20444;-88
2021/10/26 09:52:25;;;;;;;15.37;13.97;;;16.10;99.90;;;;;;5002865;28;20458;-87
2021/10/26 09:55:11;;;;;;;16.60;13.60;;;16.20;99.90;;;;;;5009841;28;20443;-88
2021/10/26 09:57:40;;;;;;;15.10;13.50;;;16.20;99.90;;;;;;5002755;28;20466;-88
2021/10/26 10:00:09;;;;;;;15.63;13.60;;;16.30;99.90;;;;;;5007226;28;20439;-87
2021/10/26 10:02:36;;;;;;;14.73;13.23;;;16.30;99.90;;;;;;5000648;28;20535;-88
2021/10/26 10:05:07;;;;;;;21.90;12.90;;;16.50;99.90;;;;;;5002590;28;20446;-88
2021/10/26 10:07:36;;;;;;;15.27;13.20;;;16.40;99.90;;;;;;5003314;28;20444;-88
2021/10/26 10:10:09;;;;;;;15.70;12.67;;;16.50;99.90;;;;;;5000829;28;20449;-88
2021/10/26 10:12:37;;;;;;;14.20;11.47;;;16.60;99.90;;;;;;5012674;28;20890;-87
2021/10/26 10:15:06;;;;;;;16.10;12.87;;;17.00;99.90;;;;;;5001060;28;20456;-87
2021/10/26 10:17:35;;;;;;;11.53;10.00;;;17.90;99.90;;;;;;5007013;28;20452;-87
2021/10/26 10:20:06;;;;;;;11.07;9.97;;;18.80;99.90;;;;;;5016919;28;20443;-88
2021/10/26 10:22:34;;;;;;;10.57;9.57;;;20.30;98.30;;;;;;5017652;28;20505;-88
2021/10/26 10:25:05;;;;;;;14.30;10.23;;;22.50;93.90;;;;;;5011620;28;20440;-88
2021/10/26 10:27:34;;;;;;;11.90;9.00;;;22.10;91.20;;;;;;5007976;28;20537;-89
2021/10/26 10:30:02;;;;;;;10.70;9.57;;;21.70;91.80;;;;;;4999707;28;20937;-89
2021/10/26 10:32:30;;;;;;;10.13;8.67;;;21.50;92.00;;;;;;5001333;28;20904;-92
2021/10/26 10:34:59;;;;;;;7.40;6.67;;;23.00;90.80;;;;;;4999858;28;20893;-89
2021/10/26 10:37:29;;;;;;;8.43;7.63;;;25.90;80.40;;;;;;4997717;28;20831;-88
2021/10/26 10:39:57;;;;;;;5.97;5.37;;;26.10;76.00;;;;;;4997146;28;20455;-88
2021/10/26 10:42:25;;;;;;;6.57;5.87;;;25.90;73.20;;;;;;4998553;28;20486;-89
2021/10/26 10:44:54;;;;;;;7.57;6.40;;;25.30;74.20;;;;;;4999280;28;20442;-89
2021/10/26 10:47:39;;;;;;;6.90;5.10;;;24.40;75.30;;;;;;5003098;28;20438;-88
2021/10/26 10:50:28;;;;;;;7.80;5.90;;;23.70;76.40;;;;;;5006354;28;20446;-87
2021/10/26 10:53:13;;;;;;;8.60;5.80;;;23.40;78.70;;;;;;5018120;28;20433;-89
2021/10/26 10:55:43;;;;;;;5.93;4.67;;;23.60;79.40;;;;;;5013274;28;20450;-88
2021/10/26 10:58:28;;;;;;;6.83;6.13;;;24.40;76.80;;;;;;5006871;28;20444;-88
2021/10/26 11:01:23;;;;;;;5.43;4.67;;;24.70;74.00;;;;;;5008257;28;20486;-88
2021/10/26 11:03:53;;;;;;;8.23;4.07;;;23.80;74.90;;;;;;5006473;28;20453;-89
2021/10/26 11:06:56;;;;;;;5.70;4.00;;;22.40;76.60;;;;;;5000596;28;20455;-88
2021/10/26 11:09:50;;;;;;;7.30;3.73;;;21.20;80.90;;;;;;5005483;28;20440;-90
2021/10/26 11:12:20;;;;;;;3.90;3.20;;;20.50;84.50;;;;;;5001176;28;21584;-88
2021/10/26 11:14:51;;;;;;;3.20;2.80;;;20.20;84.20;;;;;;5003781;28;20453;-87
2021/10/26 11:17:58;;;;;;;4.40;3.60;;;20.20;85.40;;;;;;5002519;28;20489;-89
2021/10/26 11:20:51;;;;;;;6.23;2.97;;;20.10;85.10;;;;;;5000408;28;20441;-88
2021/10/26 11:23:34;;;;;;;3.20;2.80;;;19.60;87.00;;;;;;4999409;28;20456;-88
2021/10/26 11:26:05;;;;;;;4.07;2.80;;;19.80;87.70;;;;;;4998438;28;20433;-88
2021/10/26 11:28:47;;;;;;;6.03;3.57;;;20.00;88.20;;;;;;4996812;28;20811;-88
2021/10/26 11:31:17;;;;;;;3.80;3.33;;;20.30;87.40;;;;;;4994899;28;20542;-89
2021/10/26 11:34:01;;;;;;;4.70;4.13;;;20.50;86.70;;;;;;4997138;28;20450;-89
2021/10/26 11:36:34;;;;;;;6.87;3.70;;;20.50;86.80;;;;;;5007067;28;20818;-88
2021/10/26 11:39:04;;;;;;;4.83;3.53;;;20.60;85.20;;;;;;5015081;28;20421;-88
2021/10/26 11:41:35;;;;;;;7.83;4.23;;;20.80;86.50;;;;;;5015755;28;20489;-89
2021/10/26 11:44:04;;;;;;;3.57;3.20;;;21.20;85.30;;;;;;5015471;28;20427;-88
2021/10/26 11:46:33;;;;;;;6.17;4.00;;;21.10;83.80;;;;;;5002411;28;20442;-88
2021/10/26 11:49:04;;;;;;;3.80;3.30;;;20.90;85.10;;;;;;4995164;28;20450;-88
2021/10/26 11:51:34;;;;;;;4.23;3.40;;;20.60;85.80;;;;;;4996859;28;20463;-89
2021/10/26 11:54:04;;;;;;;5.00;3.43;;;20.10;85.40;;;;;;4995546;28;20464;-88
2021/10/26 11:56:35;;;;;;;5.00;3.10;;;19.80;86.80;;;;;;4995734;28;20466;-89
2021/10/26 11:59:08;;;;;;;4.50;3.73;;;19.70;88.10;;;;;;4995558;28;20457;-89
2021/10/26 12:01:36;;;;;;;5.37;4.83;;;19.50;88.60;;;;;;4996607;28;20507;-89
2021/10/26 12:04:06;;;;;;;5.20;3.60;;;19.10;89.40;;;;;;5006553;28;20452;-87
2021/10/26 12:06:34;;;;;;;3.90;3.10;;;18.70;90.40;;;;;;5015016;28;20434;-88
2021/10/26 12:09:03;;;;;;;6.43;3.30;;;18.30;90.80;;;;;;5010641;28;20450;-88
2021/10/26 12:11:33;;;;;;;5.03;2.90;;;18.10;91.60;;;;;;5003003;28;20552;-88
2021/10/26 12:14:35;;;;;;;4.03;3.37;;;17.90;91.90;;;;;;5005649;28;20435;-88
2021/10/26 12:17:07;;;;;;;4.90;3.20;;;17.70;92.30;;;;;;5015285;28;20435;-87
2021/10/26 12:19:35;;;;;;;5.00;3.60;;;17.50;92.70;;;;;;5003793;28;20447;-88
2021/10/26 12:22:03;;;;;;;4.50;3.70;;;17.40;93.00;;;;;;5001387;28;20863;-88
2021/10/26 12:24:33;;;;;;;8.00;2.73;;;17.40;93.50;;;;;;4997484;28;20940;-88
2021/10/26 12:27:03;;;;;;;4.80;3.60;;;17.30;93.80;;;;;;4997843;28;20435;-87
2021/10/26 12:29:31;;;;;;;6.37;3.23;;;17.30;93.80;;;;;;5001155;28;20463;-89
2021/10/26 12:32:02;;;;;;;5.33;3.33;;;17.30;94.00;;;;;;5004140;28;20455;-88
2021/10/26 12:34:29;;;;;;;4.80;3.17;;;17.40;94.70;;;;;;5006222;28;20427;-90
2021/10/26 12:37:16;;;;;;;5.43;3.43;;;17.60;94.50;;;;;;5051501;23;21218;-89
2021/10/26 12:39:44;;;;;;;6.37;3.23;;;18.00;93.90;;;;;;4990950;28;20977;-88
2021/10/26 12:42:36;;;;;;;5.23;3.27;;;18.40;93.30;;;;;;4993105;28;20989;-87
2021/10/26 12:45:06;;;;;;;4.33;3.90;;;18.80;92.70;;;;;;4990353;28;20449;-88
2021/10/26 12:47:53;;;;;;;6.20;4.13;;;18.90;92.00;;;;;;4983687;28;20472;-88
2021/10/26 12:50:34;;;;;;;5.80;3.50;;;18.90;92.00;;;;;;4980847;28;20525;-87
2021/10/26 12:53:14;;;;;;;5.30;3.20;;;19.00;91.80;;;;;;4976251;28;20464;-88
2021/10/26 12:55:42;;;;;;;6.13;3.67;;;18.90;91.90;;;;;;4970374;28;20459;-90
2021/10/26 12:58:32;;;;;;;5.40;3.30;;;18.90;92.10;;;;;;4973193;28;20508;-88
2021/10/26 13:00:58;;;;;;;4.83;4.20;;;18.80;92.00;;;;;;4965783;28;20452;-87
2021/10/26 13:03:28;;;;;;;6.17;3.90;;;18.70;92.10;;;;;;4972957;28;20468;-87
2021/10/26 13:05:56;;;;;;;7.20;3.70;;;18.80;92.50;;;;;;4971896;28;20535;-87
2021/10/26 13:08:24;;;;;;;3.57;3.17;;;18.50;92.70;;;;;;4977336;28;20561;-88
2021/10/26 13:10:51;;;;;;;3.37;2.97;;;18.30;93.00;;;;;;4976244;28;20439;-88
2021/10/26 13:13:18;;;;;;;3.53;3.10;;;18.20;93.90;;;;;;4976997;28;20456;-89
2021/10/26 13:15:48;;;;;;;6.23;4.77;;;18.00;94.40;;;;;;4977032;28;20456;-91
2021/10/26 13:18:23;;;;;;;6.80;3.30;;;18.00;95.30;;;;;;4976757;28;20523;-86
2021/10/26 13:20:53;;;;;;;5.43;3.33;;;18.10;95.20;;;;;;4975274;28;20828;-86
2021/10/26 13:23:28;;;;;;;7.07;3.37;;;18.20;95.20;;;;;;4979455;28;20471;-86
2021/10/26 13:25:58;;;;;;;5.30;3.80;;;18.50;94.90;;;;;;4977151;28;20451;-86
2021/10/26 13:28:26;;;;;;;5.13;4.17;;;18.70;94.40;;;;;;4974637;28;20553;-86
2021/10/26 13:30:57;;;;;;;6.90;3.13;;;18.80;93.50;;;;;;4978077;28;20452;-87
2021/10/26 13:33:25;;;;;;;4.53;3.50;;;18.90;93.20;;;;;;4978243;28;20514;-86
2021/10/26 13:35:54;;;;;;;4.00;3.67;;;18.90;93.20;;;;;;4980892;28;20448;-85
2021/10/26 13:38:23;;;;;;;6.57;4.00;;;19.00;92.70;;;;;;4991040;28;20469;-85
2021/10/26 13:40:51;;;;;;;6.03;4.10;;;19.10;93.00;;;;;;4983823;28;20434;-88
2021/10/26 13:43:19;;;;;;;5.10;3.10;;;19.60;92.60;;;;;;4981268;28;20491;-85
2021/10/26 13:45:57;;;;;;;4.03;2.43;;;19.60;91.90;;;;;;4986186;28;20461;-90